Time;durP1;ratioP1;P1;durP2;ratioP2;P2;SDS_P1;SDS_P2;PMS_P1;PMS_P2;Temp;Humidity;BMP_temperature;BMP_pressure;BME280_temperature;BME280_humidity;BME280_pressure;Samples;Min_cycle;Max_cycle;Signal;HPM_P1;HPM_P2
2021/12/03 00:00:12;;;;;;;9.73;7.50;;;;;;;1.47;64.01;98597.09;5025979;28;20232;-66
2021/12/03 00:02:39;;;;;;;12.23;6.90;;;;;;;1.54;62.88;98601.63;5025781;28;20237;-66
2021/12/03 00:05:07;;;;;;;8.57;7.37;;;;;;;1.70;63.85;98613.34;5027141;28;20322;-66
2021/12/03 00:07:40;;;;;;;11.47;7.53;;;;;;;0.62;65.64;98610.78;5025787;28;20624;-66
2021/12/03 00:10:11;;;;;;;9.17;6.47;;;;;;;1.54;64.02;98621.84;5030894;28;20700;-66
2021/12/03 00:12:38;;;;;;;10.13;6.57;;;;;;;1.33;63.33;98609.69;5029360;28;20237;-66
2021/12/03 00:15:08;;;;;;;12.17;7.20;;;;;;;1.74;62.87;98618.19;5030094;28;20228;-66
2021/12/03 00:17:35;;;;;;;9.10;7.53;;;;;;;1.28;63.19;98618.94;5029892;28;20238;-66
2021/12/03 00:20:05;;;;;;;10.47;6.40;;;;;;;1.31;63.14;98624.72;5029205;28;20277;-66
2021/12/03 00:22:32;;;;;;;8.33;6.80;;;;;;;2.07;61.12;98620.44;5037484;28;20229;-66
2021/12/03 00:24:59;;;;;;;11.33;6.97;;;;;;;1.77;61.95;98626.75;5035855;28;20233;-66
2021/12/03 00:27:26;;;;;;;9.33;6.50;;;;;;;2.05;61.12;98623.19;5048940;28;20227;-66
2021/12/03 00:29:53;;;;;;;8.20;6.17;;;;;;;2.10;60.81;98620.16;5046996;28;20603;-66
2021/12/03 00:32:20;;;;;;;9.23;6.87;;;;;;;1.73;61.02;98627.03;5029197;28;20227;-66
2021/12/03 00:34:47;;;;;;;7.93;5.90;;;;;;;1.84;61.37;98633.94;5030462;28;20725;-66
2021/12/03 00:37:14;;;;;;;8.77;6.67;;;;;;;1.71;61.42;98644.75;5028928;28;20219;-66
2021/12/03 00:39:41;;;;;;;7.63;5.90;;;;;;;1.72;61.31;98645.63;5029559;28;20224;-66
2021/12/03 00:42:09;;;;;;;7.90;6.10;;;;;;;1.85;60.88;98646.09;5031742;28;21848;-66
2021/12/03 00:44:36;;;;;;;7.70;6.00;;;;;;;1.56;61.14;98647.00;5038031;28;20239;-66
2021/12/03 00:47:03;;;;;;;7.80;6.10;;;;;;;1.45;62.34;98660.31;5042532;28;20618;-66
2021/12/03 00:49:30;;;;;;;8.47;6.13;;;;;;;1.27;62.53;98668.03;5048743;28;20225;-66
2021/12/03 00:51:56;;;;;;;7.93;5.93;;;;;;;1.40;62.31;98659.88;5033820;28;20606;-66
2021/12/03 00:54:23;;;;;;;6.47;5.73;;;;;;;1.60;61.98;98673.00;5032959;28;20763;-66
2021/12/03 00:56:50;;;;;;;8.50;6.50;;;;;;;1.26;62.05;98665.53;5033870;28;20645;-66
2021/12/03 00:59:17;;;;;;;8.23;5.77;;;;;;;1.93;61.16;98675.16;5029339;28;20234;-66
2021/12/03 01:01:44;;;;;;;12.30;6.47;;;;;;;1.14;63.09;98668.28;5027455;28;20601;-65
2021/12/03 01:04:11;;;;;;;10.27;7.30;;;;;;;1.41;62.86;98686.97;5030561;28;20245;-66
2021/12/03 01:06:38;;;;;;;9.10;6.57;;;;;;;2.28;60.57;98670.22;5028173;28;20229;-66
2021/12/03 01:09:05;;;;;;;9.13;6.60;;;;;;;0.52;64.23;98672.91;5029128;28;20252;-66
2021/12/03 01:11:33;;;;;;;10.00;6.40;;;;;;;1.16;64.07;98692.66;5028750;28;20233;-66
2021/12/03 01:14:00;;;;;;;10.07;6.53;;;;;;;0.50;65.20;98695.81;5028393;28;20233;-66
2021/12/03 01:16:29;;;;;;;8.93;6.20;;;;;;;-1.39;69.38;98709.59;5027256;28;20232;-66
2021/12/03 01:18:57;;;;;;;7.30;5.97;;;;;;;0.04;67.51;98705.84;5025800;28;20622;-66
2021/12/03 01:21:25;;;;;;;8.93;5.93;;;;;;;0.68;66.93;98703.91;5035495;28;20222;-66
2021/12/03 01:23:53;;;;;;;7.27;6.07;;;;;;;-0.61;67.67;98709.53;5028635;28;20232;-66
2021/12/03 01:26:22;;;;;;;9.80;6.97;;;;;;;0.10;67.83;98724.63;5028107;28;20988;-66
2021/12/03 01:28:50;;;;;;;8.63;7.30;;;;;;;0.25;65.56;98697.09;5026293;28;20756;-66
2021/12/03 01:31:17;;;;;;;13.33;6.97;;;;;;;-2.10;73.31;98737.72;5031473;28;20279;-66
2021/12/03 01:33:46;;;;;;;11.03;6.33;;;;;;;-1.10;69.28;98707.31;5027346;28;20236;-66
2021/12/03 01:36:14;;;;;;;8.80;6.07;;;;;;;-0.47;69.63;98717.09;5031570;28;20242;-66
2021/12/03 01:38:41;;;;;;;8.93;6.80;;;;;;;-1.01;69.28;98718.00;5045944;28;20641;-66
2021/12/03 01:41:08;;;;;;;9.57;7.10;;;;;;;0.61;66.76;98702.78;5034981;28;20240;-66
2021/12/03 01:43:36;;;;;;;9.30;6.57;;;;;;;0.53;66.52;98710.47;5028581;28;20227;-66
2021/12/03 01:46:06;;;;;;;9.37;7.07;;;;;;;1.19;64.24;98707.28;5047776;28;20237;-66
2021/12/03 01:48:35;;;;;;;11.50;7.87;;;;;;;1.71;62.26;98699.16;5045987;28;20236;-64
2021/12/03 01:51:03;;;;;;;8.20;6.70;;;;;;;1.04;64.06;98714.75;5050184;28;20588;-65
2021/12/03 01:53:33;;;;;;;7.97;6.70;;;;;;;-0.48;66.14;98731.97;5049795;28;20238;-65
2021/12/03 01:56:09;;;;;;;10.87;7.80;;;;;;;-0.33;69.51;98734.31;5047261;28;20251;-65
2021/12/03 01:58:37;;;;;;;10.83;7.07;;;;;;;-0.09;67.34;98722.75;5047915;28;20239;-65
2021/12/03 02:01:12;;;;;;;10.03;6.73;;;;;;;-0.83;69.52;98726.16;5046963;28;20249;-65
2021/12/03 02:03:41;;;;;;;8.07;6.70;;;;;;;-0.13;67.76;98719.53;5046321;28;20243;-65
2021/12/03 02:06:11;;;;;;;8.73;6.90;;;;;;;-2.60;75.36;98757.06;5028313;28;20681;-65
2021/12/03 02:08:39;;;;;;;10.30;6.83;;;;;;;-2.50;75.62;98741.53;5047160;28;20229;-65
2021/12/03 02:11:08;;;;;;;9.30;6.90;;;;;;;-1.98;74.14;98736.78;5044438;28;20632;-65
2021/12/03 02:13:36;;;;;;;11.63;7.37;;;;;;;-1.37;72.59;98722.56;5047608;28;20231;-65
2021/12/03 02:16:04;;;;;;;9.63;6.67;;;;;;;0.52;67.02;98693.06;5047267;28;20709;-66
2021/12/03 02:18:31;;;;;;;9.30;6.80;;;;;;;0.52;65.06;98691.28;5045649;28;20233;-66
2021/12/03 02:21:00;;;;;;;11.57;7.13;;;;;;;0.90;64.48;98702.00;5051126;28;20226;-65
2021/12/03 02:23:28;;;;;;;9.37;6.77;;;;;;;-1.65;70.57;98743.03;5050595;28;20234;-65
2021/12/03 02:25:56;;;;;;;10.27;7.47;;;;;;;-1.89;73.48;98761.41;5046769;28;20224;-65
2021/12/03 02:28:28;;;;;;;10.40;6.90;;;;;;;-2.40;75.69;98762.56;5047146;28;20221;-66
2021/12/03 02:30:55;;;;;;;8.80;6.30;;;;;;;-2.92;77.61;98769.78;5046977;28;20221;-66
2021/12/03 02:33:23;;;;;;;11.83;7.10;;;;;;;-3.05;77.98;98764.63;5047791;28;20745;-65
2021/12/03 02:35:50;;;;;;;9.63;6.80;;;;;;;-2.11;75.71;98749.13;5048520;28;20227;-65
2021/12/03 02:38:20;;;;;;;12.70;7.87;;;;;;;-2.69;76.38;98749.88;5046885;28;20220;-65
2021/12/03 02:40:49;;;;;;;9.93;6.97;;;;;;;-2.60;77.27;98756.19;5039073;28;20237;-65
2021/12/03 02:43:17;;;;;;;10.90;7.70;;;;;;;-0.94;72.88;98729.66;5046989;28;20220;-65
2021/12/03 02:45:44;;;;;;;10.83;7.93;;;;;;;-1.66;73.34;98750.03;5046618;28;20739;-65
2021/12/03 02:48:11;;;;;;;8.50;6.97;;;;;;;-1.49;74.04;98753.94;5047411;28;20838;-66
2021/12/03 02:50:39;;;;;;;13.47;8.17;;;;;;;-0.06;68.70;98736.41;5047841;28;20223;-65
2021/12/03 02:53:06;;;;;;;9.80;7.47;;;;;;;0.41;65.12;98730.72;5051724;28;20223;-65
2021/12/03 02:55:32;;;;;;;12.47;8.33;;;;;;;-1.19;70.97;98762.97;5044372;28;20346;-65
2021/12/03 02:58:00;;;;;;;13.67;8.23;;;;;;;-2.03;72.55;98781.56;5046961;28;20708;-65
2021/12/03 03:00:28;;;;;;;14.70;8.20;;;;;;;-2.15;76.28;98791.16;5043860;28;20226;-65
2021/12/03 03:02:56;;;;;;;13.17;9.10;;;;;;;-2.22;73.20;98774.28;5046753;28;20227;-65
2021/12/03 03:05:26;;;;;;;14.30;8.17;;;;;;;-0.56;70.60;98752.75;5046987;28;20311;-65
2021/12/03 03:07:54;;;;;;;11.67;8.87;;;;;;;-0.42;69.71;98746.38;5046322;28;20224;-65
2021/12/03 03:10:26;;;;;;;14.13;9.70;;;;;;;-0.55;69.35;98756.19;5061187;28;20331;-65
2021/12/03 03:12:53;;;;;;;13.07;8.47;;;;;;;0.13;67.28;98743.56;5038368;28;20225;-66
2021/12/03 03:15:21;;;;;;;10.90;8.47;;;;;;;-2.08;71.61;98778.47;5046855;28;20236;-65
2021/12/03 03:17:48;;;;;;;12.87;8.43;;;;;;;-2.94;75.90;98796.03;5021765;28;20221;-65
2021/12/03 03:20:16;;;;;;;14.93;8.17;;;;;;;-3.50;79.05;98803.41;5030415;28;20226;-65
2021/12/03 03:22:44;;;;;;;14.53;9.53;;;;;;;-3.02;79.06;98794.88;5044167;28;21630;-65
2021/12/03 03:25:14;;;;;;;14.97;8.90;;;;;;;-3.36;80.41;98811.13;5034479;28;20721;-64
2021/12/03 03:27:41;;;;;;;14.50;9.00;;;;;;;-3.20;79.92;98815.28;5031245;28;20227;-64
2021/12/03 03:30:12;;;;;;;14.33;9.87;;;;;;;-1.48;73.89;98778.34;5042284;28;20892;-64
2021/12/03 03:32:39;;;;;;;12.53;8.53;;;;;;;-1.89;75.57;98783.16;5030337;28;20233;-64
2021/12/03 03:35:08;;;;;;;14.57;9.40;;;;;;;-1.22;74.04;98771.91;5027095;28;20220;-64
2021/12/03 03:37:36;;;;;;;14.17;9.77;;;;;;;-3.04;76.93;98810.63;5026689;28;20600;-65
2021/12/03 03:40:05;;;;;;;15.27;10.17;;;;;;;-1.11;73.09;98776.28;5026255;28;20255;-64
2021/12/03 03:42:33;;;;;;;14.50;9.47;;;;;;;-2.72;76.56;98808.38;5026371;28;20676;-64
2021/12/03 03:45:02;;;;;;;13.00;8.83;;;;;;;-0.90;69.78;98771.16;5032332;28;20229;-65
2021/12/03 03:47:30;;;;;;;12.23;9.27;;;;;;;-0.49;69.10;98763.56;5030783;28;20224;-64
2021/12/03 03:49:57;;;;;;;11.60;8.90;;;;;;;-1.20;68.73;98782.22;5028850;28;20225;-64
2021/12/03 03:52:27;;;;;;;12.93;8.93;;;;;;;-0.74;69.11;98778.63;5033589;28;20239;-64
2021/12/03 03:54:54;;;;;;;14.80;10.10;;;;;;;-1.71;71.52;98793.16;5030769;28;20225;-64
2021/12/03 03:57:21;;;;;;;12.73;8.80;;;;;;;-2.53;73.38;98815.72;5028213;28;20221;-64
2021/12/03 03:59:49;;;;;;;14.20;9.83;;;;;;;-2.84;75.77;98822.28;5032676;28;20224;-64
2021/12/03 04:02:16;;;;;;;13.70;10.17;;;;;;;-2.75;75.38;98819.03;5034583;28;20228;-64
2021/12/03 04:04:43;;;;;;;15.10;9.77;;;;;;;-1.88;75.07;98813.56;5041275;28;20633;-64
2021/12/03 04:07:10;;;;;;;14.43;9.63;;;;;;;-1.41;72.87;98793.44;5029242;28;20231;-64
2021/12/03 04:09:37;;;;;;;12.57;9.53;;;;;;;-1.91;72.76;98807.75;5030564;28;20788;-65
2021/12/03 04:12:04;;;;;;;13.70;9.67;;;;;;;-2.97;74.60;98822.34;5030350;28;20221;-64
2021/12/03 04:14:31;;;;;;;13.43;9.37;;;;;;;-2.33;76.40;98829.09;5029698;28;20692;-64
2021/12/03 04:16:58;;;;;;;15.20;10.67;;;;;;;-0.06;67.53;98774.91;5029186;28;20721;-65
2021/12/03 04:19:25;;;;;;;16.50;12.20;;;;;;;-0.07;67.67;98787.22;5028562;28;20217;-64
2021/12/03 04:21:52;;;;;;;17.17;10.53;;;;;;;-1.58;72.27;98817.44;5035090;28;20767;-64
2021/12/03 04:24:19;;;;;;;14.13;9.40;;;;;;;-1.80;73.03;98821.69;5029303;28;20239;-63
2021/12/03 04:26:46;;;;;;;15.53;9.93;;;;;;;-0.22;67.45;98791.06;5030009;28;20222;-64
2021/12/03 04:29:13;;;;;;;14.10;9.67;;;;;;;-1.94;74.13;98821.91;5027892;28;20236;-64
2021/12/03 04:31:40;;;;;;;14.67;10.13;;;;;;;-2.94;76.01;98843.00;5027694;28;20602;-64
2021/12/03 04:34:07;;;;;;;15.20;10.10;;;;;;;-0.54;69.27;98792.75;5029527;28;20228;-64
2021/12/03 04:36:38;;;;;;;13.70;9.80;;;;;;;-2.74;76.88;98852.00;5028708;28;20233;-64
2021/12/03 04:39:05;;;;;;;13.60;9.73;;;;;;;-2.91;74.37;98837.53;5030108;28;20238;-64
2021/12/03 04:41:32;;;;;;;13.60;8.70;;;;;;;-3.44;77.90;98862.97;5029252;28;20239;-64
2021/12/03 04:43:59;;;;;;;13.07;8.87;;;;;;;-1.91;75.13;98839.13;5028452;28;20731;-64
2021/12/03 04:46:26;;;;;;;12.70;9.90;;;;;;;-1.33;71.96;98823.41;5029189;28;20233;-64
2021/12/03 04:48:53;;;;;;;12.30;8.73;;;;;;;-1.19;70.22;98828.41;5029535;28;20230;-64
2021/12/03 04:51:19;;;;;;;17.17;9.47;;;;;;;-3.32;75.64;98871.75;5038572;28;20216;-64
2021/12/03 04:53:46;;;;;;;14.63;8.90;;;;;;;-3.28;77.32;98881.84;5031360;28;20243;-64
2021/12/03 04:56:13;;;;;;;14.47;9.13;;;;;;;-2.83;75.33;98857.06;5029048;28;20221;-65
2021/12/03 04:58:40;;;;;;;14.37;9.47;;;;;;;-3.52;77.52;98873.09;5028517;28;20239;-65
2021/12/03 05:01:07;;;;;;;14.30;10.40;;;;;;;-3.43;79.19;98879.44;5024520;28;20212;-66
2021/12/03 05:03:36;;;;;;;11.50;8.40;;;;;;;-3.70;78.37;98878.56;5029557;28;20232;-66
2021/12/03 05:06:07;;;;;;;14.10;9.47;;;;;;;-3.46;77.60;98880.47;5027790;28;20236;-66
2021/12/03 05:08:35;;;;;;;14.83;9.20;;;;;;;-3.72;78.44;98870.03;5028729;28;20225;-66
2021/12/03 05:11:02;;;;;;;17.13;10.53;;;;;;;-2.58;76.94;98858.78;5027911;28;20232;-65
2021/12/03 05:13:33;;;;;;;13.30;9.47;;;;;;;-4.07;80.73;98873.19;5029086;28;20250;-65
2021/12/03 05:16:00;;;;;;;13.40;9.13;;;;;;;-3.50;78.21;98863.38;5029274;28;20227;-65
2021/12/03 05:18:29;;;;;;;15.47;10.07;;;;;;;-2.82;77.17;98861.34;5027005;28;20224;-65
2021/12/03 05:21:00;;;;;;;15.73;10.70;;;;;;;-2.29;76.80;98861.91;5031139;28;20223;-65
2021/12/03 05:23:28;;;;;;;13.23;9.90;;;;;;;-3.60;80.01;98883.19;5028099;28;20231;-65
2021/12/03 05:25:55;;;;;;;13.27;8.73;;;;;;;-3.70;80.71;98896.81;5024126;28;20228;-65
2021/12/03 05:28:23;;;;;;;13.30;9.27;;;;;;;-1.88;76.61;98873.69;5028544;28;20250;-65
2021/12/03 05:30:52;;;;;;;15.77;10.30;;;;;;;-1.41;73.17;98863.25;5027626;28;20231;-65
2021/12/03 05:33:19;;;;;;;16.37;10.20;;;;;;;-2.74;72.32;98866.84;5029199;28;20243;-65
2021/12/03 05:35:46;;;;;;;15.63;10.53;;;;;;;-1.92;73.54;98877.50;5027823;28;20217;-65
2021/12/03 05:38:13;;;;;;;13.60;9.90;;;;;;;-3.14;77.19;98891.34;5028281;28;20224;-65
2021/12/03 05:40:40;;;;;;;15.20;10.00;;;;;;;-3.78;79.23;98893.06;5028021;28;20230;-66
2021/12/03 05:43:07;;;;;;;13.60;9.17;;;;;;;-3.80;78.87;98893.16;5027826;28;20216;-65
2021/12/03 05:45:36;;;;;;;13.93;9.80;;;;;;;-2.71;76.72;98884.91;5029401;28;20270;-65
2021/12/03 05:48:04;;;;;;;13.13;8.50;;;;;;;-3.53;77.79;98908.72;5025976;28;20245;-65
2021/12/03 05:50:31;;;;;;;12.03;9.47;;;;;;;-2.99;78.76;98905.09;5039481;28;20250;-65
2021/12/03 05:53:00;;;;;;;17.03;9.77;;;;;;;-2.72;76.75;98906.72;5034491;28;20271;-65
2021/12/03 05:55:27;;;;;;;15.17;9.90;;;;;;;-2.05;75.22;98895.84;5030486;28;20235;-65
2021/12/03 05:57:55;;;;;;;12.63;9.53;;;;;;;-2.30;75.81;98902.00;5028030;28;20227;-65
2021/12/03 06:00:29;;;;;;;13.67;10.30;;;;;;;-0.93;70.39;98877.91;5026890;28;20620;-65
2021/12/03 06:02:57;;;;;;;12.20;9.10;;;;;;;-1.31;71.33;98894.78;5038179;28;20227;-65
2021/12/03 06:05:26;;;;;;;13.13;10.00;;;;;;;-1.19;70.98;98888.59;5047804;28;20223;-65
2021/12/03 06:07:54;;;;;;;13.70;8.30;;;;;;;-0.84;69.27;98890.31;5046793;28;20235;-65
2021/12/03 06:10:21;;;;;;;13.20;9.37;;;;;;;-0.65;68.63;98883.63;5045868;28;20617;-64
2021/12/03 06:12:49;;;;;;;14.33;9.50;;;;;;;-0.16;66.83;98875.28;5045456;28;20238;-66
2021/12/03 06:15:17;;;;;;;11.80;9.00;;;;;;;-0.55;68.19;98879.31;5047654;28;20314;-65
2021/12/03 06:17:44;;;;;;;11.27;9.07;;;;;;;-1.65;72.17;98897.31;5046449;28;20216;-65
2021/12/03 06:20:12;;;;;;;14.17;9.30;;;;;;;-1.59;70.52;98896.84;5045460;28;20994;-65
2021/12/03 06:22:40;;;;;;;13.73;9.30;;;;;;;-3.25;76.25;98934.75;5054683;28;20231;-65
2021/12/03 06:25:09;;;;;;;11.87;9.03;;;;;;;-2.55;76.75;98934.25;5047572;28;20232;-65
2021/12/03 06:27:37;;;;;;;15.07;9.10;;;;;;;-2.97;76.27;98918.91;5045871;28;20218;-65
2021/12/03 06:30:10;;;;;;;12.03;8.07;;;;;;;-2.97;76.14;98918.91;5046187;28;20295;-65
2021/12/03 06:32:38;;;;;;;14.87;9.40;;;;;;;-2.75;77.53;98935.66;5045941;28;20238;-65
2021/12/03 06:35:07;;;;;;;12.83;8.47;;;;;;;-1.84;73.60;98914.38;5048045;28;20278;-65
2021/12/03 06:37:34;;;;;;;10.37;8.50;;;;;;;-1.36;71.59;98917.84;5047003;28;20223;-65
2021/12/03 06:40:07;;;;;;;14.73;9.73;;;;;;;-0.99;69.79;98917.69;5046844;28;20219;-65
2021/12/03 06:42:34;;;;;;;16.00;9.97;;;;;;;-0.48;67.51;98912.75;5046167;28;20231;-65
2021/12/03 06:45:04;;;;;;;12.67;9.30;;;;;;;-0.62;67.89;98920.06;5047249;28;20226;-65
2021/12/03 06:47:31;;;;;;;14.50;9.63;;;;;;;-0.44;67.72;98926.47;5045874;28;20239;-65
2021/12/03 06:49:59;;;;;;;14.93;9.90;;;;;;;-1.09;69.36;98946.31;5046184;28;20237;-65
2021/12/03 06:52:25;;;;;;;12.13;9.53;;;;;;;-2.43;73.99;98971.75;5051489;28;20224;-65
2021/12/03 06:54:57;;;;;;;11.03;8.40;;;;;;;-2.03;72.21;98956.66;5044811;28;20223;-65
2021/12/03 06:57:24;;;;;;;11.27;9.07;;;;;;;-1.77;73.17;98961.81;5046498;28;20224;-65
2021/12/03 06:59:51;;;;;;;13.40;7.93;;;;;;;-0.41;68.29;98934.06;5046488;28;20940;-65
2021/12/03 07:02:18;;;;;;;12.73;9.27;;;;;;;-0.46;67.77;98935.41;5044333;28;20238;-65
2021/12/03 07:04:46;;;;;;;14.70;9.83;;;;;;;0.15;66.46;98937.50;5047065;28;20230;-67
2021/12/03 07:07:13;;;;;;;11.33;8.73;;;;;;;-0.21;66.55;98934.28;5044275;28;20231;-68
2021/12/03 07:09:41;;;;;;;13.40;8.30;;;;;;;-0.58;68.27;98951.13;5040379;28;20233;-65
2021/12/03 07:12:09;;;;;;;12.47;7.97;;;;;;;-0.06;66.50;98940.91;5024781;28;20255;-65
2021/12/03 07:14:36;;;;;;;11.37;8.43;;;;;;;-0.56;68.51;98957.09;5022813;28;20237;-65
2021/12/03 07:17:06;;;;;;;13.43;8.10;;;;;;;-0.55;68.87;98953.50;5027071;28;20239;-65
2021/12/03 07:19:33;;;;;;;12.73;8.27;;;;;;;-0.80;69.08;98951.94;5028934;28;20229;-65
2021/12/03 07:22:01;;;;;;;14.30;8.70;;;;;;;-0.36;68.41;98965.97;5042559;28;20232;-66
2021/12/03 07:24:28;;;;;;;12.37;8.23;;;;;;;-0.34;68.37;98953.63;5030405;28;20236;-65
2021/12/03 07:26:55;;;;;;;9.53;6.60;;;;;;;-0.23;67.64;98949.31;5035876;28;20226;-65
2021/12/03 07:29:22;;;;;;;10.47;7.93;;;;;;;-0.55;68.31;98952.69;5050403;28;20232;-65
2021/12/03 07:31:49;;;;;;;8.07;6.63;;;;;;;-0.33;67.62;98947.41;5031595;28;20232;-65
2021/12/03 07:34:16;;;;;;;8.73;5.93;;;;;;;-0.28;67.34;98951.47;5031066;28;20232;-65
2021/12/03 07:36:43;;;;;;;11.63;7.27;;;;;;;0.17;66.40;98952.19;5041186;28;20742;-65
2021/12/03 07:39:09;;;;;;;14.27;7.70;;;;;;;0.20;66.45;98951.94;5030686;28;20590;-65
2021/12/03 07:41:40;;;;;;;8.60;7.37;;;;;;;-0.14;66.93;98946.78;5032501;28;20229;-65
2021/12/03 07:44:10;;;;;;;9.67;7.83;;;;;;;-0.39;67.47;98950.53;5031121;28;20224;-65
2021/12/03 07:46:37;;;;;;;7.03;5.73;;;;;;;-0.36;67.87;98957.28;5037038;28;20228;-70
2021/12/03 07:49:04;;;;;;;9.37;6.00;;;;;;;-0.09;66.70;98946.41;5037653;28;20242;-63
2021/12/03 07:51:36;;;;;;;9.07;6.37;;;;;;;-0.15;66.86;98958.22;5027172;28;20266;-63
2021/12/03 07:54:03;;;;;;;11.10;8.17;;;;;;;0.34;65.88;98957.84;5034139;28;20259;-63
2021/12/03 07:56:30;;;;;;;9.43;7.07;;;;;;;-0.13;67.22;98966.78;5031210;28;20829;-67
2021/12/03 07:58:57;;;;;;;10.97;7.20;;;;;;;-0.11;67.41;98971.91;5029531;28;20219;-70
2021/12/03 08:01:24;;;;;;;8.83;6.33;;;;;;;-0.16;66.86;98961.78;5026349;28;20233;-65
2021/12/03 08:03:53;;;;;;;8.60;6.47;;;;;;;0.21;65.98;98981.59;5029613;28;20234;-67
2021/12/03 08:06:20;;;;;;;12.37;6.90;;;;;;;0.26;66.58;98982.88;5029709;28;20256;-67
2021/12/03 08:08:47;;;;;;;8.93;6.53;;;;;;;0.04;67.00;98988.22;5025905;28;20733;-63
2021/12/03 08:11:14;;;;;;;9.47;6.93;;;;;;;0.15;67.12;98990.81;5033367;28;20231;-63
2021/12/03 08:13:41;;;;;;;10.60;6.77;;;;;;;-0.03;67.55;98985.25;5029043;28;20601;-63
2021/12/03 08:16:08;;;;;;;11.83;8.00;;;;;;;0.33;66.62;98988.47;5041694;28;20302;-64
2021/12/03 08:18:35;;;;;;;11.37;7.03;;;;;;;0.12;67.07;98980.56;5033116;28;20254;-63
2021/12/03 08:21:05;;;;;;;12.33;7.93;;;;;;;0.26;66.64;98979.44;5031514;28;20247;-64
2021/12/03 08:23:32;;;;;;;11.93;7.63;;;;;;;0.31;66.64;98982.53;5028810;28;20236;-63
2021/12/03 08:25:59;;;;;;;8.67;6.53;;;;;;;0.36;66.20;98982.97;5029113;28;20575;-63
2021/12/03 08:28:26;;;;;;;10.47;7.50;;;;;;;0.05;66.91;98982.84;5029231;28;20216;-63
2021/12/03 08:30:53;;;;;;;11.43;7.33;;;;;;;0.10;67.58;98997.38;5029074;28;20240;-63
2021/12/03 08:33:20;;;;;;;11.97;7.37;;;;;;;-0.52;68.14;98978.63;5029305;28;20260;-63
2021/12/03 08:35:48;;;;;;;10.63;6.77;;;;;;;0.44;66.93;98987.63;5040650;28;20220;-63
2021/12/03 08:38:15;;;;;;;10.43;6.50;;;;;;;0.20;67.57;98985.19;5029950;28;20222;-60
2021/12/03 08:41:03;;;;;;;8.37;6.50;;;;;;;0.30;66.94;98988.72;5031383;28;20226;-64
2021/12/03 08:43:30;;;;;;;9.70;7.33;;;;;;;0.33;66.49;98998.16;5037079;28;20225;-64
2021/12/03 08:45:57;;;;;;;11.53;7.90;;;;;;;0.26;67.06;98997.81;5048265;28;20221;-64
2021/12/03 08:48:26;;;;;;;15.10;10.00;;;;;;;0.55;66.30;98992.78;5029716;28;20622;-64
2021/12/03 08:56:27;;;;;;;15.73;8.53;;;;;;;0.31;67.87;99000.88;5048046;28;21720;-64
2021/12/03 08:58:54;;;;;;;16.27;11.33;;;;;;;0.55;66.61;98987.56;5049990;28;20231;-64
2021/12/03 09:01:21;;;;;;;10.90;8.77;;;;;;;0.33;67.67;98993.72;5034538;28;20221;-64
2021/12/03 09:03:48;;;;;;;12.63;7.57;;;;;;;0.79;66.67;99000.47;5038957;28;20221;-64
2021/12/03 09:06:15;;;;;;;12.10;8.10;;;;;;;0.24;68.04;99007.59;5029024;28;20230;-64
2021/12/03 09:08:42;;;;;;;12.60;8.90;;;;;;;0.14;68.63;98993.56;5038651;28;20837;-64
2021/12/03 09:11:10;;;;;;;12.27;8.33;;;;;;;0.61;67.76;99002.81;5025699;28;20651;-64
2021/12/03 09:13:39;;;;;;;14.20;9.60;;;;;;;0.62;67.06;98998.38;5027141;28;20618;-64
2021/12/03 09:16:10;;;;;;;13.67;8.20;;;;;;;-0.08;68.86;99002.31;5043381;28;20239;-64
2021/12/03 09:18:47;;;;;;;11.67;9.77;;;;;;;0.77;67.12;99006.78;5047390;28;20874;-64
2021/12/03 09:26:35;;;;;;;14.43;8.77;;;;;;;0.30;67.85;98990.53;5026627;28;20230;-64
2021/12/03 09:29:05;;;;;;;13.47;9.70;;;;;;;0.54;67.04;98990.28;5028472;28;20218;-64
2021/12/03 09:31:35;;;;;;;12.40;8.17;;;;;;;0.81;66.79;98992.47;5032913;28;20229;-64
2021/12/03 09:34:08;;;;;;;13.33;8.53;;;;;;;0.93;66.07;98986.16;5027237;28;20698;-64
2021/12/03 09:36:39;;;;;;;12.33;9.47;;;;;;;0.33;68.08;98985.84;5047913;28;20226;-64
2021/12/03 09:39:07;;;;;;;10.97;8.10;;;;;;;0.49;67.39;98987.22;5046309;28;20222;-64
2021/12/03 09:41:34;;;;;;;15.67;9.47;;;;;;;0.04;68.82;98986.41;5039088;28;20227;-64
2021/12/03 09:44:01;;;;;;;13.10;8.40;;;;;;;0.06;68.83;98986.28;5026305;28;20227;-64
2021/12/03 09:46:30;;;;;;;12.50;8.03;;;;;;;0.75;66.96;98979.84;5028019;28;20250;-64
2021/12/03 09:51:56;;;;;;;11.20;7.80;;;;;;;0.92;65.92;98973.16;5030516;28;20607;-64
2021/12/03 09:54:38;;;;;;;12.90;8.97;;;;;;;1.10;65.67;98981.31;5026893;28;21701;-65
2021/12/03 09:57:13;;;;;;;12.67;8.87;;;;;;;0.81;66.57;98972.28;5028471;28;20230;-64
2021/12/03 10:02:23;;;;;;;12.13;9.10;;;;;;;0.71;68.24;98974.00;5053914;22;21768;-61
2021/12/03 10:08:46;;;;;;;13.87;8.53;;;;;;;0.32;68.40;98970.22;5025000;28;20238;-64
2021/12/03 10:13:34;;;;;;;12.73;10.13;;;;;;;0.74;68.07;98972.91;5007259;28;20227;-64
2021/12/03 10:16:19;;;;;;;11.63;9.10;;;;;;;0.66;67.63;98957.81;5007718;28;20225;-64
2021/12/03 10:19:01;;;;;;;12.10;9.13;;;;;;;1.32;66.54;98952.22;5014016;28;21544;-68
2021/12/03 10:27:39;;;;;;;14.00;9.27;;;;;;;1.22;67.26;98943.47;5017876;28;20225;-64
2021/12/03 10:33:27;;;;;;;15.70;9.50;;;;;;;1.18;66.66;98929.78;5009344;28;20490;-64
2021/12/03 10:52:47;;;;;;;13.17;9.63;;;;;;;1.84;64.77;98927.66;5000678;28;20232;-68
2021/12/03 11:34:26;;;;;;;10.63;6.80;;;;;;;-0.88;71.37;98886.25;5081320;28;20223;-65
2021/12/03 11:49:03;;;;;;;10.40;7.07;;;;;;;-0.88;71.98;98881.88;5081978;28;21189;-64
2021/12/03 12:16:59;;;;;;;7.77;6.40;;;;;;;-0.04;69.44;98828.88;5068648;28;20224;-63
2021/12/03 12:42:40;;;;;;;10.40;7.10;;;;;;;0.76;67.19;98805.63;5052619;28;20745;-63
2021/12/03 13:12:07;;;;;;;12.57;8.23;;;;;;;0.01;69.09;98783.94;5061807;28;20224;-63
2021/12/03 13:23:25;;;;;;;11.87;7.13;;;;;;;-0.69;69.59;98755.53;5061797;28;20235;-63
2021/12/03 13:29:40;;;;;;;8.47;6.50;;;;;;;0.00;70.37;98751.66;5023554;28;21476;-64
2021/12/03 14:06:01;;;;;;;5.83;5.17;;;;;;;-0.30;68.33;98742.75;5064119;28;20222;-65
2021/12/03 14:52:07;;;;;;;8.07;5.50;;;;;;;-1.00;71.69;98715.25;5062434;28;20224;-64
2021/12/03 14:57:33;;;;;;;7.53;5.30;;;;;;;-0.40;70.99;98705.16;5065163;28;20237;-64
2021/12/03 15:00:13;;;;;;;6.87;5.40;;;;;;;-0.19;69.96;98704.31;5065395;28;20236;-64
2021/12/03 15:08:31;;;;;;;13.07;8.00;;;;;;;0.11;68.95;98686.97;5067931;28;20223;-64
2021/12/03 15:14:44;;;;;;;7.37;5.47;;;;;;;0.55;67.18;98677.88;5064800;28;20210;-64
2021/12/03 15:32:11;;;;;;;7.57;6.00;;;;;;;-0.12;69.93;98669.63;5061469;28;20230;-63
2021/12/03 16:12:22;;;;;;;6.70;5.10;;;;;;;-0.80;70.86;98648.19;5056343;28;20220;-75
2021/12/03 16:20:07;;;;;;;7.70;5.13;;;;;;;-1.12;71.40;98645.56;5065708;28;20225;-67
2021/12/03 16:23:09;;;;;;;6.20;4.97;;;;;;;-0.99;70.49;98624.50;5066805;28;20232;-66
2021/12/03 16:47:27;;;;;;;8.73;4.90;;;;;;;-0.86;70.40;98612.06;5066583;28;20229;-68
2021/12/03 16:50:31;;;;;;;7.43;4.83;;;;;;;0.32;69.06;98609.06;5072880;28;20255;-64
2021/12/03 16:52:50;;;;;;;4.47;4.07;;;;;;;-0.79;71.38;98613.19;5049992;28;21628;-64
2021/12/03 16:55:18;;;;;;;7.23;5.40;;;;;;;-0.40;70.53;98599.53;5073503;28;20603;-65
2021/12/03 16:57:48;;;;;;;6.20;5.00;;;;;;;-0.58;70.34;98594.03;5075860;28;20226;-65
2021/12/03 17:00:25;;;;;;;8.47;4.87;;;;;;;-1.10;70.83;98592.13;5076302;28;20257;-66
2021/12/03 17:03:22;;;;;;;5.07;4.23;;;;;;;-1.26;70.06;98578.63;5063686;28;22016;-65
2021/12/03 17:08:52;;;;;;;8.50;5.17;;;;;;;-0.50;70.12;98570.66;5067192;28;20238;-64
2021/12/03 17:56:17;;;;;;;8.07;5.40;;;;;;;-0.82;68.73;98519.19;5066159;28;20220;-63
2021/12/03 17:58:46;;;;;;;6.80;5.13;;;;;;;0.20;66.70;98508.69;5072902;28;20648;-63
2021/12/03 18:45:54;;;;;;;6.67;5.30;;;;;;;-0.50;68.14;98466.69;5062123;28;20630;-64
2021/12/03 18:55:59;;;;;;;4.87;4.23;;;;;;;0.21;65.49;98431.63;5063575;28;20224;-64
2021/12/03 18:58:02;;;;;;;6.67;4.40;;;;;;;-1.03;67.17;98430.22;5040783;28;20789;-64
2021/12/03 19:00:32;;;;;;;5.87;5.03;;;;;;;-0.52;66.81;98433.72;5061809;28;20219;-64
2021/12/03 19:03:04;;;;;;;6.20;4.30;;;;;;;-0.56;67.43;98448.03;5064451;28;20230;-64
2021/12/03 19:08:34;;;;;;;5.40;4.03;;;;;;;-0.29;66.47;98436.94;5055016;28;20306;-66
2021/12/03 19:11:07;;;;;;;7.13;4.33;;;;;;;-0.67;67.54;98430.66;5054167;28;21423;-64
2021/12/03 19:13:38;;;;;;;8.27;3.97;;;;;;;-1.06;68.06;98422.59;5058139;28;20231;-64
2021/12/03 19:16:09;;;;;;;5.67;4.03;;;;;;;-1.01;67.34;98404.72;5063707;28;20236;-64